Taylor, Canada
Current Conditions -  °F | °C
As of 4:00 AM on Tuesday 21 Oct 2014 (Local Time) from CYXJ Reporting Station
Broken Clouds Broken Clouds  
Wind Chill: 31°   Ceiling: 19000
Heat Index: 37°   Visibility: 15mi
Dew Point: 34°   Wind: 8mph
Humidity: 87%   Direction: 140°SE
Pressure: 29.52"   Gusts: NA
Location:  56.15°N, 120.67°W
Report Text: CYXJ 211000Z 14007KT 15SM BKN190 03/01 A2952 RMK AC5 SLP014
Loading
Personal Weather Stations






























Interactive Weather Map
Tropical Storm Tracking
New forecast layout! Learn more

10-Day Weather Forecast

Advertisements
Track Severe Weather on mobile